Time;durP1;ratioP1;P1;durP2;ratioP2;P2;SDS_P1;SDS_P2;PMS_P1;PMS_P2;Temp;Humidity;BMP_temperature;BMP_pressure;BME280_temperature;BME280_humidity;BME280_pressure;Samples;Min_cycle;Max_cycle;Signal;HPM_P1;HPM_P2
2023/02/15 00:02:34;;;;;;;70.10;41.70;;;;;;;4.20;100.00;103036.78;10081184;28;20102;-66
2023/02/15 00:07:31;;;;;;;79.20;42.03;;;;;;;4.19;100.00;103035.13;10082655;28;20141;-66
2023/02/15 00:12:28;;;;;;;78.55;43.78;;;;;;;4.24;100.00;103038.00;10089083;28;20073;-66
2023/02/15 00:17:29;;;;;;;140.27;53.47;;;;;;;4.14;100.00;103034.97;10080641;28;20699;-65
2023/02/15 00:22:26;;;;;;;82.28;41.58;;;;;;;4.00;100.00;103026.91;10086218;28;20178;-65
2023/02/15 00:27:22;;;;;;;73.05;41.42;;;;;;;4.07;100.00;103023.34;10081511;28;20056;-66
2023/02/15 00:32:19;;;;;;;79.30;42.25;;;;;;;4.07;100.00;103015.22;10090832;28;20142;-65
2023/02/15 00:37:15;;;;;;;87.32;44.75;;;;;;;4.08;100.00;103022.28;10075713;28;20140;-66
2023/02/15 00:42:12;;;;;;;74.05;41.90;;;;;;;4.13;100.00;103020.59;10069757;28;20488;-67
2023/02/15 00:47:08;;;;;;;108.63;46.72;;;;;;;4.15;100.00;103017.66;10079279;28;20134;-66
2023/02/15 00:52:05;;;;;;;69.90;43.05;;;;;;;4.22;100.00;103013.03;10088934;28;20540;-66
2023/02/15 00:57:01;;;;;;;97.60;48.28;;;;;;;4.32;100.00;103009.88;10073805;28;20145;-66
2023/02/15 01:01:58;;;;;;;81.07;49.05;;;;;;;4.19;100.00;103010.78;10074073;28;20582;-65
2023/02/15 01:06:54;;;;;;;71.28;43.10;;;;;;;4.18;100.00;103009.13;10081757;28;20633;-65
2023/02/15 01:11:50;;;;;;;76.10;45.75;;;;;;;4.12;100.00;103004.56;10088145;28;20039;-67
2023/02/15 01:16:47;;;;;;;130.25;48.35;;;;;;;4.17;100.00;102997.44;10082112;28;20129;-67
2023/02/15 01:21:43;;;;;;;85.10;44.30;;;;;;;4.24;100.00;103000.09;10086841;28;20504;-66
2023/02/15 01:26:40;;;;;;;101.68;49.97;;;;;;;4.31;100.00;102984.63;10078634;28;20074;-66
2023/02/15 01:31:38;;;;;;;83.82;44.75;;;;;;;4.24;100.00;102983.84;10078717;28;20078;-67
2023/02/15 01:36:35;;;;;;;73.07;43.15;;;;;;;4.17;100.00;102977.66;10080605;28;20461;-67
2023/02/15 01:41:32;;;;;;;81.28;45.00;;;;;;;4.19;100.00;102964.75;10080467;28;20070;-66
2023/02/15 01:46:47;;;;;;;68.47;40.53;;;;;;;4.14;100.00;102973.50;10078549;28;20412;-66
2023/02/15 01:51:45;;;;;;;67.13;42.75;;;;;;;4.18;100.00;102957.69;10058991;28;20441;-66
2023/02/15 01:56:42;;;;;;;180.85;51.88;;;;;;;4.07;100.00;102966.50;10082951;28;20133;-67
2023/02/15 02:01:39;;;;;;;77.72;42.72;;;;;;;4.10;100.00;102960.63;10071519;28;20157;-67
2023/02/15 02:06:37;;;;;;;107.90;46.72;;;;;;;4.04;100.00;102956.09;10067492;28;20054;-66
2023/02/15 02:11:34;;;;;;;94.05;45.72;;;;;;;4.05;100.00;102938.81;10075674;28;20420;-66
2023/02/15 02:16:55;;;;;;;87.07;46.25;;;;;;;3.93;100.00;102934.09;10082103;28;20481;-66
2023/02/15 02:22:15;;;;;;;83.10;45.35;;;;;;;4.05;100.00;102930.69;10095365;28;20047;-66
2023/02/15 02:27:37;;;;;;;76.70;45.40;;;;;;;4.11;100.00;102921.69;10074650;28;20134;-66
2023/02/15 02:33:11;;;;;;;96.53;48.58;;;;;;;4.06;100.00;102908.81;10086534;28;20050;-67
2023/02/15 02:38:14;;;;;;;71.20;43.85;;;;;;;4.11;100.00;102903.56;10081314;28;20054;-67
2023/02/15 02:43:26;;;;;;;76.47;42.60;;;;;;;4.18;100.00;102904.34;10090202;28;20070;-67
2023/02/15 02:48:27;;;;;;;71.72;42.58;;;;;;;4.14;100.00;102896.88;10078645;28;20047;-66
2023/02/15 02:53:24;;;;;;;72.05;42.42;;;;;;;4.08;100.00;102897.75;10094995;28;20138;-65
2023/02/15 02:58:31;;;;;;;80.13;44.47;;;;;;;4.10;100.00;102893.78;10070871;28;20051;-66
2023/02/15 03:03:34;;;;;;;64.00;36.83;;;;;;;4.00;100.00;102896.97;10083891;28;20417;-66
2023/02/15 03:08:37;;;;;;;73.93;40.30;;;;;;;3.94;100.00;102884.31;10086960;28;20061;-65
2023/02/15 03:13:35;;;;;;;63.90;38.78;;;;;;;3.89;100.00;102884.16;10078336;28;20285;-66
2023/02/15 03:18:38;;;;;;;74.38;41.90;;;;;;;3.88;100.00;102874.38;10082093;28;20230;-67
2023/02/15 03:23:36;;;;;;;59.65;38.92;;;;;;;3.91;100.00;102876.66;10096569;28;20043;-67
2023/02/15 03:28:41;;;;;;;71.85;41.20;;;;;;;3.88;100.00;102877.09;10079438;28;20057;-67
2023/02/15 03:33:44;;;;;;;92.00;44.28;;;;;;;3.84;100.00;102869.63;10089653;28;20097;-66
2023/02/15 03:38:49;;;;;;;72.13;41.58;;;;;;;3.80;100.00;102867.34;10092773;28;20166;-66
2023/02/15 03:44:02;;;;;;;87.22;45.67;;;;;;;3.84;100.00;102858.81;10085961;28;20051;-66
2023/02/15 03:49:04;;;;;;;79.03;46.17;;;;;;;3.86;100.00;102852.13;10090149;28;20089;-66
2023/02/15 03:54:06;;;;;;;;;;;;;;;3.85;100.00;102845.03;10082100;28;20046;-66
2023/02/15 04:04:22;;;;;;;66.30;41.83;;;;;;;3.78;100.00;102847.81;10092002;28;20138;-66
2023/02/15 04:25:09;;;;;;;76.60;42.17;;;;;;;3.53;100.00;102831.56;10071020;28;20047;-65
2023/02/15 04:30:06;;;;;;;60.42;39.47;;;;;;;3.53;100.00;102831.56;10058487;28;20043;-67
2023/02/15 04:35:05;;;;;;;83.95;43.75;;;;;;;3.44;100.00;102827.47;10061396;28;20442;-66
2023/02/15 04:40:03;;;;;;;66.28;42.97;;;;;;;3.52;100.00;102823.66;10066499;28;20044;-67
2023/02/15 04:44:59;;;;;;;95.50;43.80;;;;;;;3.59;100.00;102824.44;10058375;28;20079;-65
2023/02/15 04:49:56;;;;;;;66.75;41.50;;;;;;;3.47;100.00;102818.06;10056709;28;20043;-65
2023/02/15 04:54:53;;;;;;;71.18;42.75;;;;;;;3.53;100.00;102809.09;10065195;28;20059;-66
2023/02/15 04:59:50;;;;;;;59.40;39.63;;;;;;;3.46;100.00;102802.88;10059206;28;20051;-66
2023/02/15 05:04:46;;;;;;;108.05;42.75;;;;;;;3.30;100.00;102801.56;10063306;28;20058;-66
2023/02/15 05:09:43;;;;;;;52.15;36.75;;;;;;;3.36;100.00;102803.38;10076212;28;20457;-66
2023/02/15 05:14:39;;;;;;;60.00;40.40;;;;;;;3.30;100.00;102796.16;10064600;28;20400;-66
2023/02/15 05:19:36;;;;;;;74.55;40.95;;;;;;;3.18;100.00;102793.31;10066453;28;20062;-66
2023/02/15 05:29:47;;;;;;;63.35;40.03;;;;;;;3.26;100.00;102787.63;10061509;28;20062;-66
2023/02/15 05:34:43;;;;;;;63.28;40.10;;;;;;;3.33;100.00;102787.59;10073199;28;20532;-66
2023/02/15 05:39:40;;;;;;;139.82;47.55;;;;;;;3.22;100.00;102791.00;10065144;28;20126;-66
2023/02/15 05:44:36;;;;;;;64.38;40.15;;;;;;;3.28;100.00;102784.72;10063327;28;20430;-67
2023/02/15 05:49:33;;;;;;;57.42;37.33;;;;;;;3.04;100.00;102760.13;10070086;28;20381;-66
2023/02/15 05:54:29;;;;;;;51.63;35.90;;;;;;;2.95;100.00;102761.44;10080887;28;20062;-66
2023/02/15 05:59:26;;;;;;;56.17;38.35;;;;;;;3.02;100.00;102759.50;10070558;28;20112;-66
2023/02/15 06:04:22;;;;;;;57.92;39.65;;;;;;;3.05;100.00;102764.47;10070632;28;20047;-66
2023/02/15 06:09:19;;;;;;;80.70;40.25;;;;;;;3.06;100.00;102760.72;10072536;28;20407;-66
2023/02/15 06:14:16;;;;;;;50.60;35.47;;;;;;;3.00;100.00;102756.19;10072614;28;20315;-66
2023/02/15 06:19:12;;;;;;;58.28;39.30;;;;;;;3.02;100.00;102770.31;10081876;28;20063;-66
2023/02/15 06:24:09;;;;;;;59.20;39.95;;;;;;;2.95;100.00;102764.94;10071688;28;20501;-66
2023/02/15 06:29:06;;;;;;;70.07;40.42;;;;;;;3.00;100.00;102777.00;10069876;28;20541;-66
2023/02/15 06:34:02;;;;;;;50.40;36.45;;;;;;;2.85;100.00;102774.56;10075262;28;20047;-66
2023/02/15 06:38:59;;;;;;;69.00;37.85;;;;;;;2.78;100.00;102790.78;10074741;28;20049;-66
2023/02/15 06:43:55;;;;;;;58.53;36.85;;;;;;;2.79;100.00;102786.25;10071569;28;20080;-66
2023/02/15 06:48:51;;;;;;;67.53;40.47;;;;;;;2.92;100.00;102783.47;10069619;28;20094;-67
2023/02/15 06:53:48;;;;;;;59.35;38.78;;;;;;;2.98;100.00;102773.69;10083890;28;20079;-66
2023/02/15 06:58:49;;;;;;;56.20;37.85;;;;;;;2.97;100.00;102778.25;10064103;28;20043;-66
2023/02/15 07:03:45;;;;;;;58.65;38.17;;;;;;;3.01;100.00;102767.81;10074101;28;20047;-66
2023/02/15 07:08:42;;;;;;;58.25;39.63;;;;;;;2.79;100.00;102761.94;10081472;28;20049;-66
2023/02/15 07:13:38;;;;;;;60.25;38.72;;;;;;;2.84;100.00;102767.50;10071643;28;20130;-65
2023/02/15 07:18:35;;;;;;;60.78;38.13;;;;;;;2.85;100.00;102763.75;10074470;28;20106;-66
2023/02/15 07:23:31;;;;;;;53.78;37.33;;;;;;;2.90;100.00;102750.41;10070339;28;20066;-66
2023/02/15 07:28:28;;;;;;;58.65;39.15;;;;;;;2.95;100.00;102753.31;10071421;28;20066;-66
2023/02/15 07:33:26;;;;;;;64.80;37.95;;;;;;;3.01;100.00;102748.91;10067766;28;20074;-66
2023/02/15 07:38:25;;;;;;;67.38;39.33;;;;;;;2.95;100.00;102748.75;10071990;28;20508;-65
2023/02/15 07:43:22;;;;;;;53.95;37.10;;;;;;;2.82;100.00;102732.59;10070504;28;20734;-66
2023/02/15 07:48:18;;;;;;;65.43;37.38;;;;;;;2.77;100.00;102727.00;10069889;28;20047;-65
2023/02/15 07:53:15;;;;;;;146.40;47.17;;;;;;;2.71;100.00;102726.00;10080735;28;20055;-66
2023/02/15 07:58:11;;;;;;;67.00;38.72;;;;;;;2.84;100.00;102729.69;10073007;28;20050;-66
2023/02/15 08:03:13;;;;;;;55.70;39.00;;;;;;;2.80;100.00;102728.44;10078390;28;20045;-66
2023/02/15 08:08:29;;;;;;;;;;;;;;;2.82;100.00;102718.25;10066906;28;20039;-66
2023/02/15 08:13:25;;;;;;;56.67;38.03;;;;;;;2.82;100.00;102721.78;10083307;28;19933;-66
2023/02/15 08:18:22;;;;;;;87.57;40.17;;;;;;;2.80;100.00;102712.25;10077856;28;20047;-65
2023/02/15 08:23:18;;;;;;;63.72;37.50;;;;;;;2.84;100.00;102702.66;10068118;28;20055;-65
2023/02/15 08:28:15;;;;;;;50.70;38.13;;;;;;;2.98;100.00;102706.94;10077259;28;20139;-65
2023/02/15 08:33:11;;;;;;;56.50;37.80;;;;;;;2.84;100.00;102708.06;10069203;28;20126;-65
2023/02/15 08:38:07;;;;;;;58.65;38.85;;;;;;;2.84;100.00;102708.06;10067391;28;20071;-68
2023/02/15 08:43:04;;;;;;;53.92;38.03;;;;;;;2.70;100.00;102713.53;10068305;28;20051;-65
2023/02/15 08:48:00;;;;;;;57.67;37.08;;;;;;;2.62;100.00;102705.72;10076552;28;20144;-65
2023/02/15 08:52:57;;;;;;;59.78;37.80;;;;;;;2.68;100.00;102707.53;10068884;28;20964;-65
2023/02/15 08:57:55;;;;;;;55.85;38.40;;;;;;;2.81;100.00;102697.69;10085107;28;20061;-65
2023/02/15 09:02:52;;;;;;;185.63;46.88;;;;;;;2.59;100.00;102698.00;10068658;28;20093;-66
2023/02/15 09:07:48;;;;;;;59.30;37.33;;;;;;;2.83;100.00;102698.28;10079243;28;20039;-66
2023/02/15 09:12:45;;;;;;;53.35;37.53;;;;;;;2.98;100.00;102704.22;10088115;28;20078;-66
2023/02/15 09:17:41;;;;;;;64.90;38.67;;;;;;;2.91;100.00;102690.75;10068404;28;20501;-65
2023/02/15 09:22:38;;;;;;;62.70;37.13;;;;;;;3.05;100.00;102688.81;10089205;28;20047;-66
2023/02/15 09:27:34;;;;;;;60.00;35.80;;;;;;;3.14;100.00;102687.47;10066034;28;20130;-66
2023/02/15 09:32:31;;;;;;;54.72;36.90;;;;;;;3.19;100.00;102672.50;10071067;28;20079;-66
2023/02/15 09:37:27;;;;;;;52.47;37.15;;;;;;;3.09;100.00;102673.81;10068564;28;20055;-66
2023/02/15 09:42:56;;;;;;;57.35;37.65;;;;;;;3.13;100.00;102668.78;10074937;28;20058;-66
2023/02/15 09:48:37;;;;;;;57.40;36.95;;;;;;;3.22;100.00;102678.25;10068685;28;20048;-65
2023/02/15 09:54:11;;;;;;;60.72;37.85;;;;;;;3.41;100.00;102670.22;10067507;28;20509;-65
2023/02/15 09:59:40;;;;;;;52.90;35.58;;;;;;;3.49;100.00;102676.16;10065092;28;20132;-66
2023/02/15 10:04:54;;;;;;;56.28;37.70;;;;;;;3.67;100.00;102671.84;10076368;28;20047;-65
2023/02/15 10:10:08;;;;;;;59.88;36.72;;;;;;;3.58;100.00;102677.53;10063083;28;20719;-66
2023/02/15 10:15:31;;;;;;;52.15;36.80;;;;;;;3.64;100.00;102680.41;10069462;28;20505;-66
2023/02/15 10:20:46;;;;;;;;;;;;;;;3.54;100.00;102676.31;10066463;28;20062;-66
2023/02/15 10:26:11;;;;;;;53.50;37.15;;;;;;;3.79;100.00;102667.34;10070396;28;20005;-66
2023/02/15 10:31:20;;;;;;;57.22;37.42;;;;;;;3.75;100.00;102671.53;10074047;28;20047;-66
2023/02/15 10:36:32;;;;;;;60.10;34.45;;;;;;;3.47;100.00;102675.56;10063706;28;20062;-66
2023/02/15 10:41:57;;;;;;;52.08;34.97;;;;;;;3.43;100.00;102685.16;10076090;28;20051;-66
2023/02/15 10:47:18;;;;;;;56.28;36.35;;;;;;;3.65;100.00;102676.66;10065192;28;20071;-66
2023/02/15 10:52:41;;;;;;;65.05;40.13;;;;;;;3.59;100.00;102671.06;10069592;28;20053;-66
2023/02/15 10:57:55;;;;;;;53.25;34.00;;;;;;;3.94;100.00;102665.09;10071338;28;20058;-66
2023/02/15 11:03:04;;;;;;;53.50;34.08;;;;;;;4.10;100.00;102652.00;10073949;28;20138;-66
2023/02/15 11:08:06;;;;;;;57.05;37.45;;;;;;;4.02;100.00;102644.22;10073166;28;20417;-66
2023/02/15 11:13:09;;;;;;;55.23;35.00;;;;;;;4.23;100.00;102638.31;10066163;28;20423;-66
2023/02/15 11:18:21;;;;;;;61.05;37.45;;;;;;;4.25;100.00;102641.63;10075472;28;20063;-66
2023/02/15 11:23:18;;;;;;;56.50;36.03;;;;;;;4.38;100.00;102627.88;10078396;28;20044;-66
2023/02/15 11:28:28;;;;;;;52.85;34.47;;;;;;;4.78;100.00;102637.31;10073649;28;20578;-66
2023/02/15 11:33:38;;;;;;;60.55;38.20;;;;;;;5.14;100.00;102620.06;10072522;28;20464;-66
2023/02/15 11:38:36;;;;;;;49.75;32.75;;;;;;;5.11;100.00;102617.84;10067898;28;20043;-66
2023/02/15 11:44:01;;;;;;;59.95;36.95;;;;;;;5.24;100.00;102601.34;10073015;28;20046;-66
2023/02/15 11:48:58;;;;;;;50.55;32.60;;;;;;;5.39;100.00;102600.84;10070625;28;20039;-66
2023/02/15 11:53:55;;;;;;;55.78;36.47;;;;;;;5.69;100.00;102579.00;10075552;28;20086;-66
2023/02/15 11:58:59;;;;;;;54.45;33.40;;;;;;;5.51;100.00;102567.47;10086138;28;20585;-66
2023/02/15 12:04:14;;;;;;;57.92;35.92;;;;;;;5.89;100.00;102572.31;10070903;28;20051;-66
2023/02/15 12:09:35;;;;;;;50.05;33.85;;;;;;;6.44;100.00;102560.91;10071599;28;20073;-65
2023/02/15 12:14:48;;;;;;;51.42;32.38;;;;;;;6.99;100.00;102542.22;10078032;28;20078;-66
2023/02/15 12:19:48;;;;;;;46.67;31.87;;;;;;;7.00;100.00;102522.09;10069752;28;20058;-66
2023/02/15 12:24:47;;;;;;;47.05;32.20;;;;;;;7.57;100.00;102529.97;10064444;28;20474;-66
2023/02/15 12:29:58;;;;;;;43.55;28.50;;;;;;;8.13;100.00;102519.69;10084441;28;20073;-65
2023/02/15 12:35:06;;;;;;;44.15;29.15;;;;;;;8.74;100.00;102508.53;10068003;28;20078;-65
2023/02/15 12:40:27;;;;;;;43.13;30.08;;;;;;;9.74;100.00;102499.50;10070741;28;20497;-65
2023/02/15 12:45:28;;;;;;;41.00;30.33;;;;;;;10.34;100.00;102485.41;10070579;28;20059;-65
2023/02/15 12:50:28;;;;;;;44.40;31.63;;;;;;;10.50;100.00;102481.59;10065830;28;20110;-66
2023/02/15 12:55:30;;;;;;;49.95;37.35;;;;;;;10.64;100.00;102474.47;10075012;28;20109;-66
2023/02/15 13:00:28;;;;;;;41.20;30.88;;;;;;;11.67;100.00;102457.69;10077593;28;20091;-67
2023/02/15 13:05:34;;;;;;;40.03;29.17;;;;;;;12.49;100.00;102457.16;10067932;28;20049;-66
2023/02/15 13:10:39;;;;;;;41.58;29.33;;;;;;;13.20;100.00;102445.38;10069605;28;20627;-67
2023/02/15 13:15:41;;;;;;;43.05;28.77;;;;;;;13.09;100.00;102449.38;10068990;28;20154;-66
2023/02/15 13:20:40;;;;;;;36.75;28.45;;;;;;;12.47;100.00;102440.16;10066394;28;20086;-66
2023/02/15 13:25:51;;;;;;;40.85;28.90;;;;;;;11.42;100.00;102434.81;10066796;28;20418;-66
2023/02/15 13:30:48;;;;;;;34.67;25.45;;;;;;;11.94;100.00;102419.72;10067237;28;20497;-66
2023/02/15 13:36:03;;;;;;;35.65;26.85;;;;;;;11.35;100.00;102431.56;10062635;28;20046;-66
2023/02/15 13:41:05;;;;;;;41.13;30.20;;;;;;;11.28;100.00;102429.16;10084870;28;20107;-66
2023/02/15 13:46:16;;;;;;;36.23;26.90;;;;;;;11.82;100.00;102411.03;10064236;28;20532;-66
2023/02/15 13:51:38;;;;;;;32.92;26.15;;;;;;;11.84;100.00;102417.03;10065864;28;20433;-66
2023/02/15 13:57:17;;;;;;;28.77;23.35;;;;;;;10.95;100.00;102408.72;10065863;28;20047;-66
2023/02/15 14:02:37;;;;;;;32.20;24.83;;;;;;;10.17;100.00;102412.69;10065097;28;20106;-66
2023/02/15 14:08:00;;;;;;;27.48;22.27;;;;;;;10.54;100.00;102408.84;10060164;28;20137;-66
2023/02/15 14:13:31;;;;;;;28.58;23.10;;;;;;;11.06;100.00;102404.84;10072323;28;20066;-66
2023/02/15 14:18:43;;;;;;;25.58;21.05;;;;;;;11.97;100.00;102397.25;10076730;28;20475;-66
2023/02/15 14:24:01;;;;;;;29.02;22.52;;;;;;;11.19;100.00;102397.16;10083450;28;20509;-67
2023/02/15 14:29:37;;;;;;;26.45;21.95;;;;;;;11.91;100.00;102392.91;10067231;28;20046;-66
2023/02/15 14:34:51;;;;;;;28.33;22.52;;;;;;;11.80;100.00;102385.81;10078541;28;20114;-66
2023/02/15 14:45:34;;;;;;;24.95;20.80;;;;;;;10.87;100.00;102384.69;10073281;28;20047;-66
2023/02/15 14:50:30;;;;;;;28.60;22.13;;;;;;;10.58;100.00;102381.75;10073934;28;20039;-66
2023/02/15 14:55:36;;;;;;;27.42;21.33;;;;;;;10.45;100.00;102377.69;10067726;28;20047;-66
2023/02/15 15:00:39;;;;;;;31.30;22.98;;;;;;;10.08;100.00;102386.97;10069030;28;20702;-66
2023/02/15 15:05:48;;;;;;;28.38;22.33;;;;;;;9.70;100.00;102394.63;10082843;28;20043;-66
2023/02/15 15:10:46;;;;;;;28.08;22.05;;;;;;;9.42;100.00;102399.47;10074993;28;20130;-66
2023/02/15 15:15:47;;;;;;;30.55;23.08;;;;;;;9.18;100.00;102393.66;10073381;28;20167;-66
2023/02/15 15:20:50;;;;;;;31.60;22.90;;;;;;;8.94;100.00;102387.81;10071107;28;20050;-66
2023/02/15 15:26:17;;;;;;;31.20;23.38;;;;;;;8.75;100.00;102389.34;10070323;28;20517;-66
2023/02/15 15:31:42;;;;;;;30.00;22.27;;;;;;;8.54;100.00;102394.72;10067691;28;20070;-66
2023/02/15 15:37:19;;;;;;;34.35;24.50;;;;;;;8.28;100.00;102392.84;10068462;28;20401;-66
2023/02/15 15:42:27;;;;;;;29.80;24.45;;;;;;;8.11;100.00;102391.09;10076204;28;20117;-66
2023/02/15 15:47:32;;;;;;;29.88;24.45;;;;;;;7.89;100.00;102390.34;10072645;28;20055;-66
2023/02/15 15:52:31;;;;;;;32.80;26.88;;;;;;;7.69;100.00;102389.06;10073545;28;20051;-65
2023/02/15 15:57:33;;;;;;;31.58;23.90;;;;;;;7.49;100.00;102383.41;10085519;28;20039;-66
2023/02/15 16:02:30;;;;;;;32.63;27.27;;;;;;;7.20;100.00;102385.56;10072514;28;20517;-66
2023/02/15 16:07:26;;;;;;;33.42;26.83;;;;;;;7.06;100.00;102379.69;10070722;28;20039;-66
2023/02/15 16:12:24;;;;;;;34.08;28.98;;;;;;;6.84;100.00;102380.47;10072328;28;20051;-65
2023/02/15 16:17:25;;;;;;;34.17;27.88;;;;;;;6.69;100.00;102374.84;10071558;28;20051;-66
2023/02/15 16:22:24;;;;;;;34.22;29.20;;;;;;;6.52;100.00;102381.16;10082488;28;20074;-66
2023/02/15 16:27:29;;;;;;;33.67;29.08;;;;;;;6.34;100.00;102376.00;10070938;28;20082;-66
2023/02/15 16:32:27;;;;;;;34.72;30.75;;;;;;;6.29;100.00;102370.47;10072201;28;20094;-67
2023/02/15 16:37:27;;;;;;;31.23;26.77;;;;;;;6.14;100.00;102373.78;10065686;28;20671;-66
2023/02/15 16:42:24;;;;;;;31.88;26.52;;;;;;;5.91;100.00;102385.56;10070438;28;20047;-66
2023/02/15 16:47:33;;;;;;;29.70;26.42;;;;;;;6.01;100.00;102380.38;10070399;28;20510;-66
2023/02/15 16:52:29;;;;;;;34.85;28.95;;;;;;;5.92;100.00;102379.09;10070086;28;20070;-66
2023/02/15 16:57:38;;;;;;;34.75;28.67;;;;;;;5.87;100.00;102362.69;10068855;28;20054;-66
2023/02/15 17:02:34;;;;;;;33.65;28.58;;;;;;;5.78;100.00;102353.31;10073056;28;20146;-65
2023/02/15 17:08:17;;;;;;;35.53;29.48;;;;;;;5.65;100.00;102358.00;10068516;28;20039;-66
2023/02/15 17:13:15;;;;;;;35.08;29.73;;;;;;;5.60;100.00;102357.91;10053712;28;20074;-65
2023/02/15 17:18:11;;;;;;;32.15;28.70;;;;;;;5.37;100.00;102336.31;10082419;28;20079;-65
2023/02/15 17:23:32;;;;;;;38.38;33.95;;;;;;;5.37;100.00;102358.03;10070458;28;20043;-65
2023/02/15 17:28:31;;;;;;;34.47;30.15;;;;;;;5.26;100.00;102357.81;10063649;28;20134;-68
2023/02/15 17:33:34;;;;;;;37.03;31.65;;;;;;;5.23;100.00;102352.88;10070429;28;20084;-66
2023/02/15 17:38:31;;;;;;;38.00;30.90;;;;;;;5.16;100.00;102357.63;10068713;28;20070;-66
2023/02/15 17:43:28;;;;;;;37.45;32.97;;;;;;;5.18;100.00;102344.66;10065499;28;20528;-66
2023/02/15 17:48:31;;;;;;;38.38;34.38;;;;;;;5.03;100.00;102357.91;10072029;28;20039;-66
2023/02/15 17:53:28;;;;;;;37.67;33.75;;;;;;;4.98;100.00;102365.94;10062786;28;20133;-66
2023/02/15 17:58:24;;;;;;;40.20;34.47;;;;;;;4.86;100.00;102371.38;10066106;28;20052;-66
2023/02/15 18:13:51;;;;;;;40.28;35.15;;;;;;;4.77;100.00;102376.34;10057081;28;20051;-66
2023/02/15 18:18:47;;;;;;;40.45;34.55;;;;;;;4.75;100.00;102370.31;10056465;28;20134;-66
2023/02/15 18:23:44;;;;;;;37.80;33.75;;;;;;;4.65;100.00;102372.81;10070505;28;20517;-66
2023/02/15 18:28:41;;;;;;;39.08;33.20;;;;;;;4.55;100.00;102372.59;10070579;28;20067;-66
2023/02/15 18:33:46;;;;;;;41.35;35.47;;;;;;;4.53;100.00;102359.28;10056936;28;20122;-67
2023/02/15 18:38:43;;;;;;;44.75;35.65;;;;;;;4.42;100.00;102355.53;10055686;28;20052;-66
2023/02/15 18:43:39;;;;;;;44.35;34.88;;;;;;;4.35;100.00;102345.88;10058515;28;20051;-66
2023/02/15 18:48:36;;;;;;;38.92;34.70;;;;;;;4.32;100.00;102355.31;10054468;28;20066;-66
2023/02/15 18:53:33;;;;;;;42.05;35.78;;;;;;;4.28;100.00;102340.59;10056358;28;20065;-67
2023/02/15 18:58:29;;;;;;;39.42;35.20;;;;;;;4.25;100.00;102343.78;10069887;28;20126;-66
2023/02/15 19:03:25;;;;;;;38.17;34.10;;;;;;;4.22;100.00;102336.94;10078564;28;20055;-66
2023/02/15 19:08:23;;;;;;;39.03;34.60;;;;;;;4.22;100.00;102331.53;10070888;28;20055;-66
2023/02/15 19:13:20;;;;;;;40.30;35.40;;;;;;;4.18;100.00;102329.53;10065730;28;20074;-67
2023/02/15 19:18:18;;;;;;;38.45;33.78;;;;;;;4.13;100.00;102329.38;10067934;28;20122;-67
2023/02/15 19:23:18;;;;;;;43.05;37.53;;;;;;;4.00;100.00;102344.81;10075826;28;20608;-67
2023/02/15 19:28:23;;;;;;;44.38;34.90;;;;;;;3.94;100.00;102334.91;10071835;28;20424;-68
2023/02/15 19:33:22;;;;;;;39.10;33.08;;;;;;;3.95;100.00;102324.91;10059470;28;20089;-66
2023/02/15 19:38:29;;;;;;;37.60;32.72;;;;;;;3.79;100.00;102326.44;10071629;28;20058;-67
2023/02/15 19:43:26;;;;;;;43.08;36.13;;;;;;;3.77;100.00;102306.91;10086518;28;20061;-67
2023/02/15 19:48:23;;;;;;;40.17;35.78;;;;;;;3.80;100.00;102317.25;10067672;28;20055;-65
2023/02/15 19:53:26;;;;;;;42.88;36.00;;;;;;;3.72;100.00;102314.88;10080163;28;20059;-65
2023/02/15 19:58:22;;;;;;;43.25;36.67;;;;;;;3.70;100.00;102312.41;10075656;28;20046;-67
2023/02/15 20:03:19;;;;;;;42.58;35.45;;;;;;;3.65;100.00;102317.69;10078511;28;20470;-68
2023/02/15 20:08:19;;;;;;;41.10;34.97;;;;;;;3.59;100.00;102327.53;10079379;28;20418;-67
2023/02/15 20:13:18;;;;;;;36.30;32.33;;;;;;;3.58;100.00;102334.03;10070452;28;20059;-68
2023/02/15 20:18:14;;;;;;;40.03;35.75;;;;;;;3.50;100.00;102323.53;10076376;28;20135;-68
2023/02/15 20:23:37;;;;;;;38.30;34.20;;;;;;;3.53;100.00;102317.66;10072219;28;20074;-68
2023/02/15 20:28:33;;;;;;;39.03;34.50;;;;;;;3.45;100.00;102309.88;10072042;28;20046;-67
2023/02/15 20:33:30;;;;;;;36.13;32.25;;;;;;;3.41;100.00;102303.28;10058730;28;20459;-67
2023/02/15 20:38:29;;;;;;;38.28;32.42;;;;;;;3.34;100.00;102302.53;10070520;28;20090;-68
2023/02/15 20:43:26;;;;;;;41.75;35.42;;;;;;;3.34;100.00;102286.31;10087201;28;20485;-67
2023/02/15 20:48:22;;;;;;;43.08;33.55;;;;;;;3.28;100.00;102304.31;10086572;28;20050;-67
2023/02/15 20:53:19;;;;;;;40.05;34.08;;;;;;;3.21;100.00;102302.75;10090381;28;20133;-67
2023/02/15 20:58:23;;;;;;;37.33;33.38;;;;;;;3.19;100.00;102294.06;10065887;28;20062;-67
2023/02/15 21:03:25;;;;;;;34.83;31.23;;;;;;;3.19;100.00;102294.06;10069070;28;20510;-67
2023/02/15 21:08:22;;;;;;;35.70;31.77;;;;;;;3.15;100.00;102294.50;10078959;28;20501;-67
2023/02/15 21:13:23;;;;;;;36.55;32.25;;;;;;;3.08;100.00;102291.06;10067949;28;20051;-68
2023/02/15 21:18:29;;;;;;;36.78;32.63;;;;;;;2.96;100.00;102290.19;10061393;28;20047;-67
2023/02/15 21:23:36;;;;;;;34.63;30.92;;;;;;;2.89;100.00;102284.06;10061324;28;20313;-67
2023/02/15 21:28:32;;;;;;;34.92;31.33;;;;;;;2.76;100.00;102278.81;10069429;28;20106;-67
2023/02/15 21:33:29;;;;;;;35.90;31.98;;;;;;;2.69;100.00;102278.88;10075000;28;20075;-67
2023/02/15 21:38:29;;;;;;;33.83;30.17;;;;;;;2.62;100.00;102268.19;10063500;28;20137;-67
2023/02/15 21:48:41;;;;;;;35.60;31.67;;;;;;;2.48;100.00;102261.28;10065165;28;20130;-67
2023/02/15 21:53:45;;;;;;;34.58;30.65;;;;;;;2.44;100.00;102260.09;10065132;28;20051;-66
2023/02/15 21:58:42;;;;;;;36.55;31.45;;;;;;;2.40;100.00;102258.91;10055790;28;20137;-65
2023/02/15 22:03:38;;;;;;;34.63;30.95;;;;;;;2.39;100.00;102268.03;10063744;28;20057;-65
2023/02/15 22:08:35;;;;;;;34.13;30.30;;;;;;;2.45;100.00;102272.53;10062784;28;20043;-65
2023/02/15 22:13:32;;;;;;;34.45;30.63;;;;;;;2.46;100.00;102268.78;10071519;28;20516;-64
2023/02/15 22:18:32;;;;;;;35.72;30.50;;;;;;;2.52;100.00;102257.91;10075632;28;20135;-64
2023/02/15 22:23:29;;;;;;;34.15;30.23;;;;;;;2.42;100.00;102267.59;10079571;28;20134;-64
2023/02/15 22:28:32;;;;;;;36.05;32.25;;;;;;;2.46;100.00;102263.38;10073841;28;20138;-64
2023/02/15 22:33:31;;;;;;;38.13;34.00;;;;;;;2.35;100.00;102261.44;10082842;28;20059;-66
2023/02/15 22:38:28;;;;;;;37.55;33.67;;;;;;;2.37;100.00;102259.31;10074298;28;20051;-68
2023/02/15 22:43:36;;;;;;;40.67;32.03;;;;;;;2.10;100.00;102265.03;10076441;28;20502;-67
2023/02/15 22:48:33;;;;;;;35.03;29.67;;;;;;;2.27;100.00;102260.66;10077059;28;20051;-66
2023/02/15 22:53:29;;;;;;;32.78;29.38;;;;;;;2.17;100.00;102254.16;10079803;28;20130;-66
2023/02/15 22:58:27;;;;;;;36.60;30.67;;;;;;;2.19;100.00;102242.09;10082572;28;20059;-67
2023/02/15 23:03:25;;;;;;;36.40;29.38;;;;;;;2.11;100.00;102236.97;10080974;28;20460;-66
2023/02/15 23:08:21;;;;;;;38.08;30.75;;;;;;;2.16;100.00;102237.16;10088321;28;20057;-66
2023/02/15 23:13:22;;;;;;;38.40;33.45;;;;;;;2.18;100.00;102229.66;10083080;28;20098;-67
2023/02/15 23:18:30;;;;;;;43.38;33.35;;;;;;;2.22;100.00;102230.84;10072737;28;20051;-67
2023/02/15 23:23:35;;;;;;;34.50;29.60;;;;;;;2.22;100.00;102230.84;10080246;28;20147;-67
2023/02/15 23:28:36;;;;;;;37.15;31.83;;;;;;;2.19;100.00;102225.91;10075354;28;20053;-66